sensor_id;sensor_type;location;lat;lon;timestamp;temperature;humidity
68766;DHT22;55756;45.582;11.484;2023-04-29T00:00:54;15.90;60.20
68766;DHT22;55756;45.582;11.484;2023-04-29T00:03:20;15.80;60.20
68766;DHT22;55756;45.582;11.484;2023-04-29T00:05:46;15.90;59.70
68766;DHT22;55756;45.582;11.484;2023-04-29T00:08:12;15.90;59.50
68766;DHT22;55756;45.582;11.484;2023-04-29T00:10:37;15.90;59.60
68766;DHT22;55756;45.582;11.484;2023-04-29T00:13:04;15.90;59.70
68766;DHT22;55756;45.582;11.484;2023-04-29T00:15:29;15.90;59.70
68766;DHT22;55756;45.582;11.484;2023-04-29T00:17:55;15.80;59.80
68766;DHT22;55756;45.582;11.484;2023-04-29T00:20:21;15.80;59.70
68766;DHT22;55756;45.582;11.484;2023-04-29T00:22:47;15.90;59.60
68766;DHT22;55756;45.582;11.484;2023-04-29T00:25:14;15.90;59.50
68766;DHT22;55756;45.582;11.484;2023-04-29T00:27:40;15.90;59.40
68766;DHT22;55756;45.582;11.484;2023-04-29T00:30:07;15.90;59.30
68766;DHT22;55756;45.582;11.484;2023-04-29T00:32:33;15.90;59.50
68766;DHT22;55756;45.582;11.484;2023-04-29T00:34:59;15.90;59.40
68766;DHT22;55756;45.582;11.484;2023-04-29T00:37:25;15.90;59.60
68766;DHT22;55756;45.582;11.484;2023-04-29T00:39:50;15.90;59.70
68766;DHT22;55756;45.582;11.484;2023-04-29T00:42:16;15.90;59.70
68766;DHT22;55756;45.582;11.484;2023-04-29T00:44:42;15.90;59.70
68766;DHT22;55756;45.582;11.484;2023-04-29T00:47:08;15.90;59.70
68766;DHT22;55756;45.582;11.484;2023-04-29T00:49:38;15.90;59.70
68766;DHT22;55756;45.582;11.484;2023-04-29T00:52:04;15.90;59.90
68766;DHT22;55756;45.582;11.484;2023-04-29T00:54:33;15.90;60.00
68766;DHT22;55756;45.582;11.484;2023-04-29T00:57:01;15.90;60.00
68766;DHT22;55756;45.582;11.484;2023-04-29T00:59:28;15.90;60.10
68766;DHT22;55756;45.582;11.484;2023-04-29T01:02:01;15.80;60.00
68766;DHT22;55756;45.582;11.484;2023-04-29T01:04:27;15.90;59.70
68766;DHT22;55756;45.582;11.484;2023-04-29T01:10:28;15.90;59.20
68766;DHT22;55756;45.582;11.484;2023-04-29T01:13:11;15.90;59.30
68766;DHT22;55756;45.582;11.484;2023-04-29T01:18:24;15.90;59.40
68766;DHT22;55756;45.582;11.484;2023-04-29T01:20:51;15.90;59.50
68766;DHT22;55756;45.582;11.484;2023-04-29T01:23:17;15.90;59.60
68766;DHT22;55756;45.582;11.484;2023-04-29T01:25:42;15.90;59.70
68766;DHT22;55756;45.582;11.484;2023-04-29T01:41:43;15.80;60.40
68766;DHT22;55756;45.582;11.484;2023-04-29T01:44:17;15.80;60.30
68766;DHT22;55756;45.582;11.484;2023-04-29T01:46:46;15.80;60.30
68766;DHT22;55756;45.582;11.484;2023-04-29T01:49:13;15.80;60.40
68766;DHT22;55756;45.582;11.484;2023-04-29T01:51:39;15.80;60.40
68766;DHT22;55756;45.582;11.484;2023-04-29T01:54:05;15.80;60.50
68766;DHT22;55756;45.582;11.484;2023-04-29T01:56:31;15.80;60.60
68766;DHT22;55756;45.582;11.484;2023-04-29T01:59:11;15.90;60.70
68766;DHT22;55756;45.582;11.484;2023-04-29T02:02:08;15.90;60.90
68766;DHT22;55756;45.582;11.484;2023-04-29T02:04:40;15.90;61.00
68766;DHT22;55756;45.582;11.484;2023-04-29T02:07:06;15.80;61.20
68766;DHT22;55756;45.582;11.484;2023-04-29T02:09:31;15.80;61.30
68766;DHT22;55756;45.582;11.484;2023-04-29T02:12:05;15.80;61.20
68766;DHT22;55756;45.582;11.484;2023-04-29T02:14:31;15.90;61.10
68766;DHT22;55756;45.582;11.484;2023-04-29T02:16:59;15.80;61.20
68766;DHT22;55756;45.582;11.484;2023-04-29T02:19:25;15.80;61.20
68766;DHT22;55756;45.582;11.484;2023-04-29T02:21:54;15.90;61.20
68766;DHT22;55756;45.582;11.484;2023-04-29T02:24:19;15.80;61.30
68766;DHT22;55756;45.582;11.484;2023-04-29T02:26:47;15.90;61.30
68766;DHT22;55756;45.582;11.484;2023-04-29T02:29:12;15.90;61.30
68766;DHT22;55756;45.582;11.484;2023-04-29T02:31:38;15.80;61.50
68766;DHT22;55756;45.582;11.484;2023-04-29T02:34:04;15.90;61.40
68766;DHT22;55756;45.582;11.484;2023-04-29T02:36:32;15.80;61.20
68766;DHT22;55756;45.582;11.484;2023-04-29T02:38:58;15.90;61.10
68766;DHT22;55756;45.582;11.484;2023-04-29T02:41:25;15.90;61.20
68766;DHT22;55756;45.582;11.484;2023-04-29T02:43:50;15.80;61.40
68766;DHT22;55756;45.582;11.484;2023-04-29T02:46:17;15.80;61.90
68766;DHT22;55756;45.582;11.484;2023-04-29T02:48:44;15.80;62.30
68766;DHT22;55756;45.582;11.484;2023-04-29T02:51:11;15.80;62.50
68766;DHT22;55756;45.582;11.484;2023-04-29T02:53:37;15.80;62.60
68766;DHT22;55756;45.582;11.484;2023-04-29T02:56:02;15.80;62.60
68766;DHT22;55756;45.582;11.484;2023-04-29T02:58:29;15.80;62.60
68766;DHT22;55756;45.582;11.484;2023-04-29T03:00:54;15.90;62.60
68766;DHT22;55756;45.582;11.484;2023-04-29T03:03:21;15.80;62.70
68766;DHT22;55756;45.582;11.484;2023-04-29T03:05:47;15.80;62.70
68766;DHT22;55756;45.582;11.484;2023-04-29T03:08:13;15.80;62.80
68766;DHT22;55756;45.582;11.484;2023-04-29T03:10:40;15.80;62.80
68766;DHT22;55756;45.582;11.484;2023-04-29T03:13:07;15.80;62.80
68766;DHT22;55756;45.582;11.484;2023-04-29T03:15:34;15.80;63.00
68766;DHT22;55756;45.582;11.484;2023-04-29T03:18:00;15.80;63.00
68766;DHT22;55756;45.582;11.484;2023-04-29T03:20:28;15.80;63.00
68766;DHT22;55756;45.582;11.484;2023-04-29T03:22:54;15.80;62.80
68766;DHT22;55756;45.582;11.484;2023-04-29T03:25:20;15.80;62.60
68766;DHT22;55756;45.582;11.484;2023-04-29T03:27:46;15.80;62.50
68766;DHT22;55756;45.582;11.484;2023-04-29T03:30:11;15.80;62.50
68766;DHT22;55756;45.582;11.484;2023-04-29T03:32:44;15.80;62.60
68766;DHT22;55756;45.582;11.484;2023-04-29T03:35:10;15.80;62.70
68766;DHT22;55756;45.582;11.484;2023-04-29T03:37:43;15.80;62.70
68766;DHT22;55756;45.582;11.484;2023-04-29T03:40:19;15.80;62.80
68766;DHT22;55756;45.582;11.484;2023-04-29T03:42:46;15.80;62.80
68766;DHT22;55756;45.582;11.484;2023-04-29T03:45:11;15.90;62.70
68766;DHT22;55756;45.582;11.484;2023-04-29T03:47:39;15.90;62.90
68766;DHT22;55756;45.582;11.484;2023-04-29T03:50:06;15.90;63.00
68766;DHT22;55756;45.582;11.484;2023-04-29T03:52:33;15.80;63.20
68766;DHT22;55756;45.582;11.484;2023-04-29T03:55:05;15.80;63.20
68766;DHT22;55756;45.582;11.484;2023-04-29T03:57:31;15.80;63.30
68766;DHT22;55756;45.582;11.484;2023-04-29T03:59:57;15.80;63.20
68766;DHT22;55756;45.582;11.484;2023-04-29T04:02:23;15.80;63.30
68766;DHT22;55756;45.582;11.484;2023-04-29T04:04:49;15.80;63.40
68766;DHT22;55756;45.582;11.484;2023-04-29T04:07:14;15.80;63.40
68766;DHT22;55756;45.582;11.484;2023-04-29T04:10:03;15.80;63.50
68766;DHT22;55756;45.582;11.484;2023-04-29T04:12:30;15.80;63.50
68766;DHT22;55756;45.582;11.484;2023-04-29T04:14:56;15.80;63.50
68766;DHT22;55756;45.582;11.484;2023-04-29T04:17:22;15.80;63.60
68766;DHT22;55756;45.582;11.484;2023-04-29T04:19:47;15.80;63.60
68766;DHT22;55756;45.582;11.484;2023-04-29T04:22:13;15.80;63.50
68766;DHT22;55756;45.582;11.484;2023-04-29T04:24:54;15.80;63.60
68766;DHT22;55756;45.582;11.484;2023-04-29T04:27:20;15.80;63.60
68766;DHT22;55756;45.582;11.484;2023-04-29T06:15:31;16.00;64.50
68766;DHT22;55756;45.582;11.484;2023-04-29T06:50:21;16.40;63.00
68766;DHT22;55756;45.582;11.484;2023-04-29T07:27:05;16.90;60.50
68766;DHT22;55756;45.582;11.484;2023-04-29T07:33:27;17.00;60.40
68766;DHT22;55756;45.582;11.484;2023-04-29T07:35:54;17.00;60.20
68766;DHT22;55756;45.582;11.484;2023-04-29T07:38:53;17.10;60.20
68766;DHT22;55756;45.582;11.484;2023-04-29T07:41:21;17.10;60.50
68766;DHT22;55756;45.582;11.484;2023-04-29T07:43:47;17.10;60.30
68766;DHT22;55756;45.582;11.484;2023-04-29T07:46:13;17.20;60.30
68766;DHT22;55756;45.582;11.484;2023-04-29T09:33:22;18.20;52.90
68766;DHT22;55756;45.582;11.484;2023-04-29T10:22:15;18.60;50.80
68766;DHT22;55756;45.582;11.484;2023-04-29T10:32:49;18.80;49.80
68766;DHT22;55756;45.582;11.484;2023-04-29T10:35:20;19.00;49.50
68766;DHT22;55756;45.582;11.484;2023-04-29T10:37:48;19.00;49.10
68766;DHT22;55756;45.582;11.484;2023-04-29T10:40:21;19.10;49.50
68766;DHT22;55756;45.582;11.484;2023-04-29T10:42:50;19.10;49.40
68766;DHT22;55756;45.582;11.484;2023-04-29T10:45:32;19.20;49.40
68766;DHT22;55756;45.582;11.484;2023-04-29T10:53:31;19.20;49.70
68766;DHT22;55756;45.582;11.484;2023-04-29T10:56:04;19.20;49.70
68766;DHT22;55756;45.582;11.484;2023-04-29T11:01:06;19.20;49.10
68766;DHT22;55756;45.582;11.484;2023-04-29T11:03:55;19.10;48.90
68766;DHT22;55756;45.582;11.484;2023-04-29T11:12:02;19.20;49.60
68766;DHT22;55756;45.582;11.484;2023-04-29T11:17:33;19.20;50.10
68766;DHT22;55756;45.582;11.484;2023-04-29T11:19:53;19.20;50.30
68766;DHT22;55756;45.582;11.484;2023-04-29T11:22:26;19.20;50.70
68766;DHT22;55756;45.582;11.484;2023-04-29T11:44:05;19.40;50.50
68766;DHT22;55756;45.582;11.484;2023-04-29T11:50:45;19.30;50.90
68766;DHT22;55756;45.582;11.484;2023-04-29T12:01:19;19.30;50.90
68766;DHT22;55756;45.582;11.484;2023-04-29T17:16:08;20.10;52.50
